sensor_id;sensor_type;location;lat;lon;timestamp;temperature;humidity
18876;DHT22;9570;50.854;13.778;2023-05-23T00:02:22;16.60;99.90
18876;DHT22;9570;50.854;13.778;2023-05-23T00:04:47;16.60;99.90
18876;DHT22;9570;50.854;13.778;2023-05-23T00:07:15;16.70;99.90
18876;DHT22;9570;50.854;13.778;2023-05-23T00:09:40;16.60;99.90
18876;DHT22;9570;50.854;13.778;2023-05-23T00:12:06;16.70;99.90
18876;DHT22;9570;50.854;13.778;2023-05-23T00:14:31;16.70;99.90
18876;DHT22;9570;50.854;13.778;2023-05-23T00:16:58;16.70;99.90
18876;DHT22;9570;50.854;13.778;2023-05-23T00:19:25;16.70;99.90
18876;DHT22;9570;50.854;13.778;2023-05-23T00:21:50;16.70;99.90
18876;DHT22;9570;50.854;13.778;2023-05-23T00:24:18;16.80;99.90
18876;DHT22;9570;50.854;13.778;2023-05-23T00:26:45;16.80;99.90
18876;DHT22;9570;50.854;13.778;2023-05-23T00:29:10;16.80;99.90
18876;DHT22;9570;50.854;13.778;2023-05-23T00:31:43;16.80;99.90
18876;DHT22;9570;50.854;13.778;2023-05-23T00:34:11;16.80;99.90
18876;DHT22;9570;50.854;13.778;2023-05-23T00:36:37;16.80;99.90
18876;DHT22;9570;50.854;13.778;2023-05-23T00:39:03;16.80;99.90
18876;DHT22;9570;50.854;13.778;2023-05-23T00:41:29;16.80;99.90
18876;DHT22;9570;50.854;13.778;2023-05-23T00:43:56;16.80;99.90
18876;DHT22;9570;50.854;13.778;2023-05-23T00:46:24;16.80;99.90
18876;DHT22;9570;50.854;13.778;2023-05-23T00:48:50;16.80;99.90
18876;DHT22;9570;50.854;13.778;2023-05-23T00:51:16;16.80;99.90
18876;DHT22;9570;50.854;13.778;2023-05-23T00:53:42;16.80;99.90
18876;DHT22;9570;50.854;13.778;2023-05-23T00:56:08;16.80;99.90
18876;DHT22;9570;50.854;13.778;2023-05-23T00:58:34;16.70;99.90
18876;DHT22;9570;50.854;13.778;2023-05-23T01:00:59;16.80;99.90
18876;DHT22;9570;50.854;13.778;2023-05-23T01:03:26;16.80;99.90
18876;DHT22;9570;50.854;13.778;2023-05-23T01:05:53;16.80;99.90
18876;DHT22;9570;50.854;13.778;2023-05-23T01:08:20;16.90;99.90
18876;DHT22;9570;50.854;13.778;2023-05-23T01:10:46;16.80;99.90
18876;DHT22;9570;50.854;13.778;2023-05-23T01:13:32;16.90;99.90
18876;DHT22;9570;50.854;13.778;2023-05-23T01:16:17;16.90;99.90
18876;DHT22;9570;50.854;13.778;2023-05-23T01:18:53;16.90;99.90
18876;DHT22;9570;50.854;13.778;2023-05-23T01:21:23;16.90;99.90
18876;DHT22;9570;50.854;13.778;2023-05-23T01:24:26;16.90;99.90
18876;DHT22;9570;50.854;13.778;2023-05-23T01:29:53;16.80;99.90
18876;DHT22;9570;50.854;13.778;2023-05-23T01:32:22;16.90;99.90
18876;DHT22;9570;50.854;13.778;2023-05-23T01:34:52;16.80;99.90
18876;DHT22;9570;50.854;13.778;2023-05-23T01:37:18;16.80;99.90
18876;DHT22;9570;50.854;13.778;2023-05-23T01:39:44;16.80;99.90
18876;DHT22;9570;50.854;13.778;2023-05-23T01:42:09;16.90;99.90
18876;DHT22;9570;50.854;13.778;2023-05-23T01:44:36;16.90;99.90
18876;DHT22;9570;50.854;13.778;2023-05-23T01:47:03;17.00;99.90
18876;DHT22;9570;50.854;13.778;2023-05-23T01:49:30;16.90;99.90
18876;DHT22;9570;50.854;13.778;2023-05-23T01:51:57;16.90;99.90
18876;DHT22;9570;50.854;13.778;2023-05-23T01:54:23;16.90;99.90
18876;DHT22;9570;50.854;13.778;2023-05-23T01:56:49;16.90;99.90
18876;DHT22;9570;50.854;13.778;2023-05-23T01:59:15;16.90;99.90
18876;DHT22;9570;50.854;13.778;2023-05-23T02:01:41;17.00;99.90
18876;DHT22;9570;50.854;13.778;2023-05-23T02:04:07;17.00;99.90
18876;DHT22;9570;50.854;13.778;2023-05-23T02:06:33;16.90;99.90
18876;DHT22;9570;50.854;13.778;2023-05-23T02:08:58;16.80;99.90
18876;DHT22;9570;50.854;13.778;2023-05-23T02:11:24;16.80;99.90
18876;DHT22;9570;50.854;13.778;2023-05-23T02:13:51;16.80;99.90
18876;DHT22;9570;50.854;13.778;2023-05-23T02:16:16;16.80;99.90
18876;DHT22;9570;50.854;13.778;2023-05-23T02:18:42;16.90;99.90
18876;DHT22;9570;50.854;13.778;2023-05-23T02:21:10;16.80;99.90
18876;DHT22;9570;50.854;13.778;2023-05-23T02:23:35;16.80;99.90
18876;DHT22;9570;50.854;13.778;2023-05-23T02:26:01;16.70;99.90
18876;DHT22;9570;50.854;13.778;2023-05-23T02:28:26;16.60;99.90
18876;DHT22;9570;50.854;13.778;2023-05-23T02:30:52;16.60;99.90
18876;DHT22;9570;50.854;13.778;2023-05-23T02:33:17;16.60;99.90
18876;DHT22;9570;50.854;13.778;2023-05-23T02:35:43;16.60;99.90
18876;DHT22;9570;50.854;13.778;2023-05-23T02:38:09;16.60;99.90
18876;DHT22;9570;50.854;13.778;2023-05-23T02:40:35;16.70;99.90
18876;DHT22;9570;50.854;13.778;2023-05-23T02:43:00;16.70;99.90
18876;DHT22;9570;50.854;13.778;2023-05-23T02:45:25;16.70;99.90
18876;DHT22;9570;50.854;13.778;2023-05-23T02:47:51;16.60;99.90
18876;DHT22;9570;50.854;13.778;2023-05-23T02:50:16;16.70;99.90
18876;DHT22;9570;50.854;13.778;2023-05-23T02:52:42;16.70;99.90
18876;DHT22;9570;50.854;13.778;2023-05-23T02:55:08;16.70;99.90
18876;DHT22;9570;50.854;13.778;2023-05-23T02:57:34;16.70;99.90
18876;DHT22;9570;50.854;13.778;2023-05-23T03:00:00;16.50;99.90
18876;DHT22;9570;50.854;13.778;2023-05-23T03:02:25;16.60;99.90
18876;DHT22;9570;50.854;13.778;2023-05-23T03:04:51;16.60;99.90
18876;DHT22;9570;50.854;13.778;2023-05-23T03:07:16;16.60;99.90
18876;DHT22;9570;50.854;13.778;2023-05-23T03:09:42;16.60;99.90
18876;DHT22;9570;50.854;13.778;2023-05-23T03:12:07;16.60;99.90
18876;DHT22;9570;50.854;13.778;2023-05-23T03:14:32;16.60;99.90
18876;DHT22;9570;50.854;13.778;2023-05-23T03:16:58;16.60;99.90
18876;DHT22;9570;50.854;13.778;2023-05-23T03:19:24;16.60;99.90
18876;DHT22;9570;50.854;13.778;2023-05-23T03:21:50;16.60;99.90
18876;DHT22;9570;50.854;13.778;2023-05-23T03:24:16;16.50;99.90
18876;DHT22;9570;50.854;13.778;2023-05-23T03:26:42;16.20;99.90
18876;DHT22;9570;50.854;13.778;2023-05-23T03:29:07;16.20;99.90
18876;DHT22;9570;50.854;13.778;2023-05-23T03:31:35;16.20;99.90
18876;DHT22;9570;50.854;13.778;2023-05-23T03:34:01;16.30;99.90
18876;DHT22;9570;50.854;13.778;2023-05-23T03:36:26;16.40;99.90
18876;DHT22;9570;50.854;13.778;2023-05-23T03:38:52;16.40;99.90
18876;DHT22;9570;50.854;13.778;2023-05-23T03:41:18;16.40;99.90
18876;DHT22;9570;50.854;13.778;2023-05-23T03:43:43;16.40;99.90
18876;DHT22;9570;50.854;13.778;2023-05-23T03:46:09;16.40;99.90
18876;DHT22;9570;50.854;13.778;2023-05-23T03:48:35;16.40;99.90
18876;DHT22;9570;50.854;13.778;2023-05-23T03:51:01;16.40;99.90
18876;DHT22;9570;50.854;13.778;2023-05-23T03:53:26;16.40;99.90
18876;DHT22;9570;50.854;13.778;2023-05-23T03:55:52;16.40;99.90
18876;DHT22;9570;50.854;13.778;2023-05-23T03:58:18;16.40;99.90
18876;DHT22;9570;50.854;13.778;2023-05-23T04:00:44;16.40;99.90
18876;DHT22;9570;50.854;13.778;2023-05-23T04:03:10;16.50;99.90
18876;DHT22;9570;50.854;13.778;2023-05-23T04:05:39;16.50;99.90
18876;DHT22;9570;50.854;13.778;2023-05-23T04:08:05;16.50;99.90
18876;DHT22;9570;50.854;13.778;2023-05-23T04:10:31;16.50;99.90
18876;DHT22;9570;50.854;13.778;2023-05-23T04:12:56;16.50;99.90
18876;DHT22;9570;50.854;13.778;2023-05-23T04:15:23;16.50;99.90
18876;DHT22;9570;50.854;13.778;2023-05-23T04:17:49;16.50;99.90
18876;DHT22;9570;50.854;13.778;2023-05-23T04:20:15;16.60;99.90
18876;DHT22;9570;50.854;13.778;2023-05-23T04:22:41;16.60;99.90
18876;DHT22;9570;50.854;13.778;2023-05-23T04:25:07;16.60;99.90
18876;DHT22;9570;50.854;13.778;2023-05-23T04:27:33;16.60;99.90
18876;DHT22;9570;50.854;13.778;2023-05-23T04:29:59;16.70;99.90
18876;DHT22;9570;50.854;13.778;2023-05-23T04:32:25;16.70;99.90
18876;DHT22;9570;50.854;13.778;2023-05-23T04:34:50;16.80;99.90
18876;DHT22;9570;50.854;13.778;2023-05-23T04:37:17;16.80;99.90
18876;DHT22;9570;50.854;13.778;2023-05-23T04:39:49;16.70;99.90
18876;DHT22;9570;50.854;13.778;2023-05-23T04:42:14;16.60;99.90
18876;DHT22;9570;50.854;13.778;2023-05-23T04:44:40;16.60;99.90
18876;DHT22;9570;50.854;13.778;2023-05-23T04:47:06;16.70;99.90
18876;DHT22;9570;50.854;13.778;2023-05-23T04:49:34;16.60;99.90
18876;DHT22;9570;50.854;13.778;2023-05-23T04:52:00;16.70;99.90
18876;DHT22;9570;50.854;13.778;2023-05-23T04:54:26;16.60;99.90
18876;DHT22;9570;50.854;13.778;2023-05-23T04:56:51;16.70;99.90
18876;DHT22;9570;50.854;13.778;2023-05-23T04:59:17;16.80;99.90
18876;DHT22;9570;50.854;13.778;2023-05-23T05:01:42;16.80;99.90
18876;DHT22;9570;50.854;13.778;2023-05-23T05:04:08;16.80;99.90
18876;DHT22;9570;50.854;13.778;2023-05-23T05:06:33;16.90;99.90
18876;DHT22;9570;50.854;13.778;2023-05-23T05:08:59;17.00;99.90
18876;DHT22;9570;50.854;13.778;2023-05-23T05:11:25;17.10;99.90
18876;DHT22;9570;50.854;13.778;2023-05-23T05:13:51;17.10;99.90
18876;DHT22;9570;50.854;13.778;2023-05-23T05:16:16;17.20;99.90
18876;DHT22;9570;50.854;13.778;2023-05-23T05:18:42;17.10;99.90
18876;DHT22;9570;50.854;13.778;2023-05-23T05:21:08;17.10;99.90
18876;DHT22;9570;50.854;13.778;2023-05-23T05:23:34;17.20;99.90
18876;DHT22;9570;50.854;13.778;2023-05-23T05:26:00;17.30;99.90
18876;DHT22;9570;50.854;13.778;2023-05-23T05:28:25;17.20;99.90
18876;DHT22;9570;50.854;13.778;2023-05-23T05:30:51;17.10;99.90
18876;DHT22;9570;50.854;13.778;2023-05-23T05:33:19;17.00;99.90
18876;DHT22;9570;50.854;13.778;2023-05-23T05:35:45;17.10;99.90
18876;DHT22;9570;50.854;13.778;2023-05-23T05:38:10;17.00;99.90
18876;DHT22;9570;50.854;13.778;2023-05-23T05:40:36;17.10;99.90
18876;DHT22;9570;50.854;13.778;2023-05-23T05:43:01;17.10;99.90
18876;DHT22;9570;50.854;13.778;2023-05-23T05:45:27;16.90;99.90
18876;DHT22;9570;50.854;13.778;2023-05-23T05:47:52;16.80;99.90
18876;DHT22;9570;50.854;13.778;2023-05-23T05:50:17;16.70;99.90
18876;DHT22;9570;50.854;13.778;2023-05-23T05:52:44;16.60;99.90
18876;DHT22;9570;50.854;13.778;2023-05-23T05:55:10;16.70;99.90
18876;DHT22;9570;50.854;13.778;2023-05-23T05:57:37;16.90;99.90
18876;DHT22;9570;50.854;13.778;2023-05-23T06:00:05;17.30;99.90
18876;DHT22;9570;50.854;13.778;2023-05-23T06:02:38;17.70;99.90
18876;DHT22;9570;50.854;13.778;2023-05-23T06:05:04;18.00;99.90
18876;DHT22;9570;50.854;13.778;2023-05-23T06:07:32;18.00;99.90
18876;DHT22;9570;50.854;13.778;2023-05-23T06:09:58;18.10;99.90
18876;DHT22;9570;50.854;13.778;2023-05-23T06:12:24;18.50;99.90
18876;DHT22;9570;50.854;13.778;2023-05-23T06:14:49;18.90;99.90
18876;DHT22;9570;50.854;13.778;2023-05-23T06:17:15;19.10;99.90
18876;DHT22;9570;50.854;13.778;2023-05-23T06:19:40;19.40;99.90
18876;DHT22;9570;50.854;13.778;2023-05-23T06:22:06;19.80;99.90
18876;DHT22;9570;50.854;13.778;2023-05-23T06:24:31;19.90;99.90
18876;DHT22;9570;50.854;13.778;2023-05-23T06:26:56;19.20;99.90
18876;DHT22;9570;50.854;13.778;2023-05-23T06:29:23;18.70;99.90
18876;DHT22;9570;50.854;13.778;2023-05-23T06:31:48;18.40;99.90
18876;DHT22;9570;50.854;13.778;2023-05-23T06:34:15;18.10;99.90
18876;DHT22;9570;50.854;13.778;2023-05-23T06:36:40;18.10;99.90
18876;DHT22;9570;50.854;13.778;2023-05-23T06:39:07;18.30;99.90
18876;DHT22;9570;50.854;13.778;2023-05-23T06:41:34;18.40;99.90
18876;DHT22;9570;50.854;13.778;2023-05-23T06:44:00;18.30;99.90
18876;DHT22;9570;50.854;13.778;2023-05-23T06:46:25;18.20;99.90
18876;DHT22;9570;50.854;13.778;2023-05-23T06:48:51;18.00;99.90
18876;DHT22;9570;50.854;13.778;2023-05-23T06:51:16;17.90;99.90
18876;DHT22;9570;50.854;13.778;2023-05-23T06:53:42;18.00;99.90
18876;DHT22;9570;50.854;13.778;2023-05-23T06:56:07;18.20;99.90
18876;DHT22;9570;50.854;13.778;2023-05-23T06:58:33;18.10;99.90
18876;DHT22;9570;50.854;13.778;2023-05-23T07:00:58;17.90;99.90
18876;DHT22;9570;50.854;13.778;2023-05-23T07:03:23;17.80;99.90
18876;DHT22;9570;50.854;13.778;2023-05-23T07:05:49;17.80;99.90
18876;DHT22;9570;50.854;13.778;2023-05-23T07:08:15;17.80;99.90
18876;DHT22;9570;50.854;13.778;2023-05-23T07:10:41;17.60;99.90
18876;DHT22;9570;50.854;13.778;2023-05-23T07:13:06;17.70;99.90
18876;DHT22;9570;50.854;13.778;2023-05-23T07:15:32;17.70;99.90
18876;DHT22;9570;50.854;13.778;2023-05-23T07:17:57;17.80;99.90
18876;DHT22;9570;50.854;13.778;2023-05-23T07:20:22;17.90;99.90
18876;DHT22;9570;50.854;13.778;2023-05-23T07:22:48;17.90;99.90
18876;DHT22;9570;50.854;13.778;2023-05-23T07:25:16;17.90;99.90
18876;DHT22;9570;50.854;13.778;2023-05-23T07:27:41;17.90;99.90
18876;DHT22;9570;50.854;13.778;2023-05-23T07:30:07;17.80;99.90
18876;DHT22;9570;50.854;13.778;2023-05-23T07:32:34;17.60;99.90
18876;DHT22;9570;50.854;13.778;2023-05-23T07:35:00;17.70;99.90
18876;DHT22;9570;50.854;13.778;2023-05-23T07:37:25;17.80;99.90
18876;DHT22;9570;50.854;13.778;2023-05-23T07:39:52;17.70;99.90
18876;DHT22;9570;50.854;13.778;2023-05-23T07:42:17;17.70;99.90
18876;DHT22;9570;50.854;13.778;2023-05-23T07:44:43;17.60;99.90
18876;DHT22;9570;50.854;13.778;2023-05-23T07:47:08;17.60;99.90
18876;DHT22;9570;50.854;13.778;2023-05-23T07:49:34;17.60;99.90
18876;DHT22;9570;50.854;13.778;2023-05-23T07:52:00;17.70;99.90
18876;DHT22;9570;50.854;13.778;2023-05-23T07:54:25;17.70;99.90
18876;DHT22;9570;50.854;13.778;2023-05-23T07:56:52;17.90;99.90
18876;DHT22;9570;50.854;13.778;2023-05-23T07:59:18;17.80;99.90
18876;DHT22;9570;50.854;13.778;2023-05-23T08:01:43;17.80;99.90
18876;DHT22;9570;50.854;13.778;2023-05-23T08:04:09;17.60;99.90
18876;DHT22;9570;50.854;13.778;2023-05-23T08:06:34;17.60;99.90
18876;DHT22;9570;50.854;13.778;2023-05-23T08:09:02;17.70;99.90
18876;DHT22;9570;50.854;13.778;2023-05-23T08:11:27;17.70;99.90
18876;DHT22;9570;50.854;13.778;2023-05-23T08:13:54;17.70;99.90
18876;DHT22;9570;50.854;13.778;2023-05-23T08:16:20;17.60;99.90
18876;DHT22;9570;50.854;13.778;2023-05-23T08:18:45;17.60;99.90
18876;DHT22;9570;50.854;13.778;2023-05-23T08:21:11;17.70;99.90
18876;DHT22;9570;50.854;13.778;2023-05-23T08:23:36;17.60;99.90
18876;DHT22;9570;50.854;13.778;2023-05-23T08:26:02;17.70;99.90
18876;DHT22;9570;50.854;13.778;2023-05-23T08:28:27;17.70;99.90
18876;DHT22;9570;50.854;13.778;2023-05-23T08:30:53;17.70;99.90
18876;DHT22;9570;50.854;13.778;2023-05-23T08:33:19;17.60;99.90
18876;DHT22;9570;50.854;13.778;2023-05-23T08:35:44;17.60;99.90
18876;DHT22;9570;50.854;13.778;2023-05-23T08:38:10;17.70;99.90
18876;DHT22;9570;50.854;13.778;2023-05-23T08:40:36;17.80;99.90
18876;DHT22;9570;50.854;13.778;2023-05-23T08:43:03;17.70;99.90
18876;DHT22;9570;50.854;13.778;2023-05-23T08:45:30;17.80;99.90
18876;DHT22;9570;50.854;13.778;2023-05-23T08:47:59;17.80;99.90
18876;DHT22;9570;50.854;13.778;2023-05-23T08:50:27;17.90;99.90
18876;DHT22;9570;50.854;13.778;2023-05-23T08:52:57;18.00;99.90
18876;DHT22;9570;50.854;13.778;2023-05-23T08:55:24;18.10;99.90
18876;DHT22;9570;50.854;13.778;2023-05-23T08:57:51;18.10;99.90
18876;DHT22;9570;50.854;13.778;2023-05-23T09:00:18;18.20;99.90
18876;DHT22;9570;50.854;13.778;2023-05-23T09:02:44;18.20;99.90
18876;DHT22;9570;50.854;13.778;2023-05-23T09:05:10;18.10;99.90
18876;DHT22;9570;50.854;13.778;2023-05-23T09:07:36;18.10;99.90
18876;DHT22;9570;50.854;13.778;2023-05-23T09:10:04;18.00;99.90
18876;DHT22;9570;50.854;13.778;2023-05-23T09:12:29;17.90;99.90
18876;DHT22;9570;50.854;13.778;2023-05-23T09:14:55;17.80;99.90
18876;DHT22;9570;50.854;13.778;2023-05-23T09:17:21;17.80;99.90
18876;DHT22;9570;50.854;13.778;2023-05-23T09:19:48;17.70;99.90
18876;DHT22;9570;50.854;13.778;2023-05-23T09:22:13;17.50;99.90
18876;DHT22;9570;50.854;13.778;2023-05-23T09:24:39;17.50;99.90
18876;DHT22;9570;50.854;13.778;2023-05-23T09:27:05;17.60;99.90
18876;DHT22;9570;50.854;13.778;2023-05-23T09:29:31;17.70;99.90
18876;DHT22;9570;50.854;13.778;2023-05-23T09:32:13;17.70;99.90
18876;DHT22;9570;50.854;13.778;2023-05-23T09:34:40;17.60;99.90
18876;DHT22;9570;50.854;13.778;2023-05-23T09:37:06;17.60;99.90
18876;DHT22;9570;50.854;13.778;2023-05-23T09:39:36;17.80;99.90
18876;DHT22;9570;50.854;13.778;2023-05-23T09:42:02;17.80;99.90
18876;DHT22;9570;50.854;13.778;2023-05-23T09:44:28;17.80;99.90
18876;DHT22;9570;50.854;13.778;2023-05-23T09:46:54;18.00;99.90
18876;DHT22;9570;50.854;13.778;2023-05-23T09:49:19;18.10;99.90
18876;DHT22;9570;50.854;13.778;2023-05-23T09:51:59;18.10;99.90
18876;DHT22;9570;50.854;13.778;2023-05-23T09:54:25;18.10;99.90
18876;DHT22;9570;50.854;13.778;2023-05-23T09:56:52;18.00;99.90
18876;DHT22;9570;50.854;13.778;2023-05-23T09:59:20;17.90;99.90
18876;DHT22;9570;50.854;13.778;2023-05-23T10:01:50;18.00;99.90
18876;DHT22;9570;50.854;13.778;2023-05-23T10:04:20;18.00;99.90
18876;DHT22;9570;50.854;13.778;2023-05-23T10:06:53;18.10;99.90
18876;DHT22;9570;50.854;13.778;2023-05-23T10:09:22;18.20;99.90
18876;DHT22;9570;50.854;13.778;2023-05-23T10:14:56;17.80;99.90
18876;DHT22;9570;50.854;13.778;2023-05-23T10:17:29;17.80;99.90
18876;DHT22;9570;50.854;13.778;2023-05-23T10:20:03;17.70;99.90
18876;DHT22;9570;50.854;13.778;2023-05-23T10:22:35;17.60;99.90
18876;DHT22;9570;50.854;13.778;2023-05-23T10:25:02;17.70;99.90
18876;DHT22;9570;50.854;13.778;2023-05-23T10:27:30;17.80;99.90
18876;DHT22;9570;50.854;13.778;2023-05-23T10:29:57;17.90;99.90
18876;DHT22;9570;50.854;13.778;2023-05-23T10:32:24;18.00;99.90
18876;DHT22;9570;50.854;13.778;2023-05-23T10:35:16;18.00;99.90
18876;DHT22;9570;50.854;13.778;2023-05-23T10:38:06;17.90;99.90
18876;DHT22;9570;50.854;13.778;2023-05-23T10:40:54;17.50;99.90
18876;DHT22;9570;50.854;13.778;2023-05-23T10:43:35;17.40;99.90
18876;DHT22;9570;50.854;13.778;2023-05-23T10:46:01;17.30;99.90
18876;DHT22;9570;50.854;13.778;2023-05-23T10:48:34;17.30;99.90
18876;DHT22;9570;50.854;13.778;2023-05-23T10:51:14;17.10;99.90
18876;DHT22;9570;50.854;13.778;2023-05-23T10:53:41;17.00;99.90
18876;DHT22;9570;50.854;13.778;2023-05-23T10:56:08;16.80;99.90
18876;DHT22;9570;50.854;13.778;2023-05-23T10:58:40;16.50;99.90
18876;DHT22;9570;50.854;13.778;2023-05-23T11:01:08;16.60;99.90
18876;DHT22;9570;50.854;13.778;2023-05-23T11:06:31;16.30;99.90
18876;DHT22;9570;50.854;13.778;2023-05-23T11:09:02;16.30;99.90
18876;DHT22;9570;50.854;13.778;2023-05-23T11:14:13;16.30;99.90
18876;DHT22;9570;50.854;13.778;2023-05-23T11:16:40;16.50;99.90
18876;DHT22;9570;50.854;13.778;2023-05-23T11:21:44;16.50;99.90
18876;DHT22;9570;50.854;13.778;2023-05-23T11:24:09;16.50;99.90
18876;DHT22;9570;50.854;13.778;2023-05-23T11:26:35;16.70;99.90
18876;DHT22;9570;50.854;13.778;2023-05-23T11:29:01;16.70;99.90
18876;DHT22;9570;50.854;13.778;2023-05-23T11:31:29;16.80;99.90
18876;DHT22;9570;50.854;13.778;2023-05-23T11:33:55;16.80;99.90
18876;DHT22;9570;50.854;13.778;2023-05-23T11:36:23;16.80;99.90
18876;DHT22;9570;50.854;13.778;2023-05-23T11:38:51;16.80;99.90
18876;DHT22;9570;50.854;13.778;2023-05-23T11:41:17;16.80;99.90
18876;DHT22;9570;50.854;13.778;2023-05-23T11:43:49;16.80;99.90
18876;DHT22;9570;50.854;13.778;2023-05-23T11:46:16;16.70;99.90
18876;DHT22;9570;50.854;13.778;2023-05-23T11:48:48;16.80;99.90
18876;DHT22;9570;50.854;13.778;2023-05-23T11:51:16;16.70;99.90
18876;DHT22;9570;50.854;13.778;2023-05-23T11:53:41;16.70;99.90
18876;DHT22;9570;50.854;13.778;2023-05-23T11:56:07;16.80;99.90
18876;DHT22;9570;50.854;13.778;2023-05-23T11:58:38;17.00;99.90
18876;DHT22;9570;50.854;13.778;2023-05-23T12:01:05;17.00;99.90
18876;DHT22;9570;50.854;13.778;2023-05-23T12:03:43;17.10;99.90
18876;DHT22;9570;50.854;13.778;2023-05-23T12:06:09;16.90;99.90
18876;DHT22;9570;50.854;13.778;2023-05-23T12:08:34;16.80;99.90
18876;DHT22;9570;50.854;13.778;2023-05-23T12:11:00;16.80;99.90
18876;DHT22;9570;50.854;13.778;2023-05-23T12:13:28;16.70;99.90
18876;DHT22;9570;50.854;13.778;2023-05-23T12:15:55;16.80;99.90
18876;DHT22;9570;50.854;13.778;2023-05-23T12:18:20;16.60;99.90
18876;DHT22;9570;50.854;13.778;2023-05-23T12:20:48;16.50;99.90
18876;DHT22;9570;50.854;13.778;2023-05-23T12:23:21;16.50;99.90
18876;DHT22;9570;50.854;13.778;2023-05-23T12:25:54;16.50;99.90
18876;DHT22;9570;50.854;13.778;2023-05-23T12:28:22;16.70;99.90
18876;DHT22;9570;50.854;13.778;2023-05-23T12:30:58;16.90;99.90
18876;DHT22;9570;50.854;13.778;2023-05-23T12:33:24;16.80;99.90
18876;DHT22;9570;50.854;13.778;2023-05-23T12:35:50;16.80;99.90
18876;DHT22;9570;50.854;13.778;2023-05-23T12:38:15;16.70;99.90
18876;DHT22;9570;50.854;13.778;2023-05-23T12:40:41;16.80;99.90
18876;DHT22;9570;50.854;13.778;2023-05-23T12:43:08;16.70;99.90
18876;DHT22;9570;50.854;13.778;2023-05-23T12:45:35;16.80;99.90
18876;DHT22;9570;50.854;13.778;2023-05-23T12:48:07;16.80;99.90
18876;DHT22;9570;50.854;13.778;2023-05-23T12:50:33;17.00;99.90
18876;DHT22;9570;50.854;13.778;2023-05-23T12:52:58;16.90;99.90
18876;DHT22;9570;50.854;13.778;2023-05-23T12:55:24;16.90;99.90
18876;DHT22;9570;50.854;13.778;2023-05-23T12:57:50;17.00;99.90
18876;DHT22;9570;50.854;13.778;2023-05-23T13:00:15;17.10;99.90
18876;DHT22;9570;50.854;13.778;2023-05-23T13:02:41;17.20;99.90
18876;DHT22;9570;50.854;13.778;2023-05-23T13:05:07;17.10;99.90
18876;DHT22;9570;50.854;13.778;2023-05-23T13:07:32;17.30;99.90
18876;DHT22;9570;50.854;13.778;2023-05-23T13:09:58;17.30;99.90
18876;DHT22;9570;50.854;13.778;2023-05-23T13:12:23;17.30;99.90
18876;DHT22;9570;50.854;13.778;2023-05-23T13:14:49;17.20;99.90
18876;DHT22;9570;50.854;13.778;2023-05-23T13:17:15;17.30;99.90
18876;DHT22;9570;50.854;13.778;2023-05-23T13:19:41;17.10;99.90
18876;DHT22;9570;50.854;13.778;2023-05-23T13:22:07;17.10;99.90
18876;DHT22;9570;50.854;13.778;2023-05-23T13:24:36;17.20;99.90
18876;DHT22;9570;50.854;13.778;2023-05-23T13:27:03;17.10;99.90
18876;DHT22;9570;50.854;13.778;2023-05-23T13:29:29;17.00;99.90
18876;DHT22;9570;50.854;13.778;2023-05-23T13:31:55;16.90;99.90
18876;DHT22;9570;50.854;13.778;2023-05-23T13:34:20;16.90;99.90
18876;DHT22;9570;50.854;13.778;2023-05-23T13:36:46;17.00;99.90
18876;DHT22;9570;50.854;13.778;2023-05-23T13:39:11;17.00;99.90
18876;DHT22;9570;50.854;13.778;2023-05-23T13:41:37;17.00;99.90
18876;DHT22;9570;50.854;13.778;2023-05-23T13:44:02;17.10;99.90
18876;DHT22;9570;50.854;13.778;2023-05-23T13:46:28;17.30;99.90
18876;DHT22;9570;50.854;13.778;2023-05-23T13:48:53;17.50;99.90
18876;DHT22;9570;50.854;13.778;2023-05-23T13:51:19;17.60;99.90
18876;DHT22;9570;50.854;13.778;2023-05-23T13:53:44;17.40;99.90
18876;DHT22;9570;50.854;13.778;2023-05-23T13:56:10;17.30;99.90
18876;DHT22;9570;50.854;13.778;2023-05-23T13:58:35;17.30;99.90
18876;DHT22;9570;50.854;13.778;2023-05-23T14:01:01;17.50;99.90
18876;DHT22;9570;50.854;13.778;2023-05-23T14:03:26;17.60;99.90
18876;DHT22;9570;50.854;13.778;2023-05-23T14:05:52;17.50;99.90
18876;DHT22;9570;50.854;13.778;2023-05-23T14:08:17;17.40;99.90
18876;DHT22;9570;50.854;13.778;2023-05-23T14:10:43;17.20;99.90
18876;DHT22;9570;50.854;13.778;2023-05-23T14:13:08;16.90;99.90
18876;DHT22;9570;50.854;13.778;2023-05-23T14:15:34;16.90;99.90
18876;DHT22;9570;50.854;13.778;2023-05-23T14:18:00;16.80;99.90
18876;DHT22;9570;50.854;13.778;2023-05-23T14:20:25;16.70;99.90
18876;DHT22;9570;50.854;13.778;2023-05-23T14:22:51;16.70;99.90
18876;DHT22;9570;50.854;13.778;2023-05-23T14:25:17;16.70;99.90
18876;DHT22;9570;50.854;13.778;2023-05-23T14:27:43;16.80;99.90
18876;DHT22;9570;50.854;13.778;2023-05-23T14:30:09;16.80;99.90
18876;DHT22;9570;50.854;13.778;2023-05-23T14:32:35;16.90;99.90
18876;DHT22;9570;50.854;13.778;2023-05-23T14:35:07;16.80;99.90
18876;DHT22;9570;50.854;13.778;2023-05-23T14:37:33;16.90;99.90
18876;DHT22;9570;50.854;13.778;2023-05-23T14:39:59;17.10;99.90
18876;DHT22;9570;50.854;13.778;2023-05-23T14:42:24;17.20;99.90
18876;DHT22;9570;50.854;13.778;2023-05-23T14:44:52;17.00;99.90
18876;DHT22;9570;50.854;13.778;2023-05-23T14:47:17;16.90;99.90
18876;DHT22;9570;50.854;13.778;2023-05-23T14:49:43;16.70;99.90
18876;DHT22;9570;50.854;13.778;2023-05-23T14:52:08;16.70;99.90
18876;DHT22;9570;50.854;13.778;2023-05-23T14:54:34;16.50;99.90
18876;DHT22;9570;50.854;13.778;2023-05-23T14:57:00;16.50;99.90
18876;DHT22;9570;50.854;13.778;2023-05-23T14:59:27;16.10;99.90
18876;DHT22;9570;50.854;13.778;2023-05-23T15:01:53;16.30;99.90
18876;DHT22;9570;50.854;13.778;2023-05-23T15:04:19;16.50;99.90
18876;DHT22;9570;50.854;13.778;2023-05-23T15:06:44;16.50;99.90
18876;DHT22;9570;50.854;13.778;2023-05-23T15:09:11;16.50;99.90
18876;DHT22;9570;50.854;13.778;2023-05-23T15:11:37;16.50;99.90
18876;DHT22;9570;50.854;13.778;2023-05-23T15:14:03;16.60;99.90
18876;DHT22;9570;50.854;13.778;2023-05-23T15:16:28;16.60;99.90
18876;DHT22;9570;50.854;13.778;2023-05-23T15:18:57;16.60;99.90
18876;DHT22;9570;50.854;13.778;2023-05-23T15:21:23;16.40;99.90
18876;DHT22;9570;50.854;13.778;2023-05-23T15:23:48;16.50;99.90
18876;DHT22;9570;50.854;13.778;2023-05-23T15:26:14;16.60;99.90
18876;DHT22;9570;50.854;13.778;2023-05-23T15:28:39;16.60;99.90
18876;DHT22;9570;50.854;13.778;2023-05-23T15:31:05;16.60;99.90
18876;DHT22;9570;50.854;13.778;2023-05-23T15:33:31;16.40;99.90
18876;DHT22;9570;50.854;13.778;2023-05-23T15:35:56;16.30;99.90
18876;DHT22;9570;50.854;13.778;2023-05-23T15:38:23;16.20;99.90
18876;DHT22;9570;50.854;13.778;2023-05-23T15:40:49;16.10;99.90
18876;DHT22;9570;50.854;13.778;2023-05-23T15:43:16;16.10;99.90